Time;durP1;ratioP1;P1;durP2;ratioP2;P2;SDS_P1;SDS_P2;PMS_P1;PMS_P2;Temp;Humidity;BMP_temperature;BMP_pressure;BME280_temperature;BME280_humidity;BME280_pressure;Samples;Min_cycle;Max_cycle;Signal;HPM_P1;HPM_P2
2022/10/15 00:00:42;;;;;;;61.47;41.05;;;12.80;99.90;;;;;;5027223;28;20044;-73
2022/10/15 00:03:08;;;;;;;65.72;38.45;;;12.90;99.90;;;;;;5045196;28;20183;-72
2022/10/15 00:05:38;;;;;;;66.65;39.00;;;12.80;99.90;;;;;;5026241;28;20037;-73
2022/10/15 00:08:04;;;;;;;68.63;38.03;;;12.80;99.90;;;;;;5044925;28;20059;-73
2022/10/15 00:10:30;;;;;;;60.95;38.55;;;12.80;99.90;;;;;;5061362;28;20050;-73
2022/10/15 00:12:56;;;;;;;62.40;39.65;;;12.80;99.90;;;;;;5063891;28;20406;-73
2022/10/15 00:15:21;;;;;;;63.92;39.70;;;12.80;99.90;;;;;;5064839;28;20087;-73
2022/10/15 00:17:47;;;;;;;65.53;38.58;;;12.80;99.90;;;;;;5064915;28;20049;-73
2022/10/15 00:20:13;;;;;;;63.60;38.42;;;12.80;99.90;;;;;;5064106;28;20040;-73
2022/10/15 00:22:39;;;;;;;66.78;41.42;;;12.80;99.90;;;;;;5046736;28;20394;-72
2022/10/15 00:25:05;;;;;;;55.72;38.90;;;12.80;99.90;;;;;;5053821;28;20046;-73
2022/10/15 00:27:31;;;;;;;63.80;40.28;;;12.90;99.90;;;;;;5064791;28;20047;-73
2022/10/15 00:29:59;;;;;;;62.28;41.70;;;12.80;99.90;;;;;;5047280;28;20104;-73
2022/10/15 00:32:25;;;;;;;64.53;40.75;;;12.80;99.90;;;;;;5064400;28;20531;-73
2022/10/15 00:34:50;;;;;;;66.15;39.65;;;12.90;99.90;;;;;;5063359;28;20052;-73
2022/10/15 00:37:16;;;;;;;63.25;40.47;;;12.80;99.90;;;;;;5046695;28;20051;-73
2022/10/15 00:39:42;;;;;;;56.28;39.00;;;12.90;99.90;;;;;;5064145;28;20048;-73
2022/10/15 00:42:10;;;;;;;72.10;38.85;;;12.80;99.90;;;;;;5064277;28;20043;-73
2022/10/15 00:44:36;;;;;;;63.67;38.55;;;12.90;99.90;;;;;;5064353;28;20040;-73
2022/10/15 00:47:05;;;;;;;62.53;38.20;;;12.80;99.90;;;;;;5064153;28;20518;-74
2022/10/15 00:49:37;;;;;;;65.28;38.85;;;12.90;99.90;;;;;;5063765;28;20047;-73
2022/10/15 00:52:06;;;;;;;56.22;37.97;;;12.90;99.90;;;;;;5046479;28;20087;-73
2022/10/15 00:54:43;;;;;;;56.00;36.50;;;12.90;99.90;;;;;;5063742;28;20087;-73
2022/10/15 00:57:11;;;;;;;65.88;36.95;;;12.90;99.90;;;;;;5064195;28;20032;-73
2022/10/15 00:59:41;;;;;;;56.15;37.53;;;12.90;99.90;;;;;;5063773;28;20504;-73
2022/10/15 01:02:07;;;;;;;57.50;37.42;;;12.90;99.90;;;;;;5064196;28;20045;-73
2022/10/15 01:04:34;;;;;;;62.80;38.63;;;12.90;99.90;;;;;;5062852;28;20394;-73
2022/10/15 01:07:00;;;;;;;69.97;38.35;;;12.90;99.90;;;;;;5044756;28;20084;-73
2022/10/15 01:09:25;;;;;;;62.70;35.42;;;12.90;99.90;;;;;;5044017;28;20474;-73
2022/10/15 01:11:54;;;;;;;64.85;36.28;;;12.90;99.90;;;;;;5043748;28;20036;-73
2022/10/15 01:14:28;;;;;;;63.08;37.35;;;12.90;99.90;;;;;;5043804;28;20048;-73
2022/10/15 01:16:56;;;;;;;57.70;38.33;;;12.90;99.90;;;;;;5052045;28;20060;-73
2022/10/15 01:19:40;;;;;;;60.70;35.45;;;12.90;99.90;;;;;;5063008;28;20053;-73
2022/10/15 01:22:15;;;;;;;55.70;35.10;;;12.90;99.90;;;;;;5043787;28;20044;-73
2022/10/15 01:25:19;;;;;;;66.53;39.47;;;12.90;99.90;;;;;;5047144;28;20047;-73
2022/10/15 01:27:53;;;;;;;54.25;36.08;;;12.90;99.90;;;;;;4981406;28;20097;-73
2022/10/15 01:30:19;;;;;;;54.80;35.20;;;12.80;99.90;;;;;;4982028;28;20043;-74
2022/10/15 01:32:50;;;;;;;62.83;38.45;;;12.80;99.90;;;;;;5024081;28;20453;-73
2022/10/15 01:35:18;;;;;;;62.30;39.88;;;12.80;99.90;;;;;;5062664;28;20049;-72
2022/10/15 01:38:16;;;;;;;57.90;34.92;;;12.80;99.90;;;;;;5053205;28;20047;-73
2022/10/15 01:41:03;;;;;;;59.63;36.55;;;12.80;99.90;;;;;;5025279;28;20395;-73
2022/10/15 01:43:55;;;;;;;60.78;34.08;;;12.80;99.90;;;;;;5043565;28;20052;-73
2022/10/15 01:46:33;;;;;;;44.33;33.30;;;12.80;99.90;;;;;;5032429;28;20057;-73
2022/10/15 01:49:02;;;;;;;55.00;34.17;;;12.80;99.90;;;;;;5043885;28;20033;-73
2022/10/15 01:51:31;;;;;;;50.72;29.58;;;12.80;99.90;;;;;;5043969;28;20064;-73
2022/10/15 01:53:59;;;;;;;45.10;27.60;;;12.80;99.90;;;;;;5043693;28;20395;-73
2022/10/15 01:56:26;;;;;;;36.55;27.13;;;12.80;99.90;;;;;;5025194;28;20041;-73
2022/10/15 01:58:54;;;;;;;39.25;26.70;;;12.80;99.90;;;;;;5042737;28;20505;-73
2022/10/15 02:01:20;;;;;;;39.00;25.67;;;12.80;99.90;;;;;;5042936;28;20487;-73
2022/10/15 02:03:51;;;;;;;40.33;23.15;;;12.80;99.90;;;;;;5042966;28;20044;-73
2022/10/15 02:06:27;;;;;;;39.25;24.40;;;12.80;99.90;;;;;;5042484;28;20045;-73
2022/10/15 02:09:04;;;;;;;32.17;23.05;;;12.80;99.90;;;;;;5042728;28;20195;-73
2022/10/15 02:11:53;;;;;;;31.05;22.52;;;12.80;99.90;;;;;;5043357;28;20053;-73
2022/10/15 02:14:32;;;;;;;29.45;20.50;;;12.80;99.90;;;;;;5025013;28;20522;-73
2022/10/15 02:17:09;;;;;;;27.55;20.50;;;12.80;99.90;;;;;;5043124;28;20080;-73
2022/10/15 02:19:53;;;;;;;38.05;21.95;;;12.80;99.90;;;;;;5033502;28;20045;-73
2022/10/15 02:22:25;;;;;;;33.83;21.33;;;12.80;99.90;;;;;;5063123;28;20036;-73
2022/10/15 02:24:51;;;;;;;;;;;12.80;99.90;;;;;;5057433;28;20086;-73
2022/10/15 02:27:18;;;;;;;33.00;22.92;;;12.80;99.90;;;;;;5025113;28;20015;-73
2022/10/15 02:29:45;;;;;;;33.05;22.63;;;12.80;99.90;;;;;;5042565;28;20519;-73
2022/10/15 02:32:14;;;;;;;42.65;24.15;;;12.80;99.90;;;;;;5025182;28;20411;-73
2022/10/15 02:34:40;;;;;;;38.67;23.63;;;12.80;99.90;;;;;;5043010;28;20112;-73
2022/10/15 02:37:06;;;;;;;35.33;24.48;;;12.80;99.90;;;;;;5047061;28;20040;-73
2022/10/15 02:39:33;;;;;;;34.88;24.10;;;12.80;99.90;;;;;;5046730;28;20059;-73
2022/10/15 02:41:59;;;;;;;37.75;26.58;;;12.80;99.90;;;;;;5046813;28;20511;-73
2022/10/15 02:44:25;;;;;;;44.95;26.50;;;12.80;99.90;;;;;;5046297;28;20044;-73
2022/10/15 02:46:50;;;;;;;41.40;26.45;;;12.80;99.90;;;;;;5046514;28;20447;-72
2022/10/15 02:49:16;;;;;;;50.00;28.55;;;12.80;99.90;;;;;;5045745;28;20040;-73
2022/10/15 02:51:42;;;;;;;44.85;27.65;;;12.80;99.90;;;;;;5046427;28;20049;-73
2022/10/15 02:54:07;;;;;;;52.30;29.30;;;12.70;99.90;;;;;;5046835;28;20033;-73
2022/10/15 02:56:33;;;;;;;52.00;30.77;;;12.80;99.90;;;;;;5046520;28;20080;-73
2022/10/15 02:58:59;;;;;;;54.90;32.50;;;12.80;99.90;;;;;;5046499;28;20041;-73
2022/10/15 03:01:25;;;;;;;62.88;34.80;;;12.80;99.90;;;;;;5028433;28;20099;-72
2022/10/15 03:03:51;;;;;;;58.90;34.47;;;12.80;99.90;;;;;;5058435;28;21239;-73
2022/10/15 03:06:17;;;;;;;61.28;34.15;;;12.80;99.90;;;;;;5065347;28;20074;-73
2022/10/15 03:08:43;;;;;;;60.95;35.38;;;12.80;99.90;;;;;;5066108;28;20041;-73
2022/10/15 03:11:09;;;;;;;69.03;35.28;;;12.80;99.90;;;;;;5066380;28;20460;-73
2022/10/15 03:13:36;;;;;;;55.53;35.03;;;12.80;99.90;;;;;;5031559;28;20470;-73
2022/10/15 03:16:09;;;;;;;58.35;35.00;;;12.80;99.90;;;;;;5048316;28;20541;-73
2022/10/15 03:18:36;;;;;;;51.28;34.97;;;12.80;99.90;;;;;;5048034;28;20044;-73
2022/10/15 03:21:02;;;;;;;58.72;35.45;;;12.80;99.90;;;;;;5065478;28;20048;-73
2022/10/15 03:23:28;;;;;;;64.85;35.83;;;12.80;99.90;;;;;;5048257;28;20045;-73
2022/10/15 03:25:54;;;;;;;64.82;35.45;;;12.80;99.90;;;;;;5051380;28;20063;-73
2022/10/15 03:28:20;;;;;;;60.30;34.35;;;12.80;99.90;;;;;;5046102;28;20499;-73
2022/10/15 03:30:46;;;;;;;60.72;35.58;;;12.80;99.90;;;;;;5027931;28;20060;-73
2022/10/15 03:33:12;;;;;;;63.75;36.50;;;12.80;99.90;;;;;;5028157;28;20033;-73
2022/10/15 03:35:37;;;;;;;59.65;33.55;;;12.80;99.90;;;;;;5044599;28;20075;-73
2022/10/15 03:38:04;;;;;;;57.80;35.47;;;12.80;99.90;;;;;;5011323;28;20041;-73
2022/10/15 03:40:30;;;;;;;62.42;37.45;;;12.70;99.90;;;;;;5045973;28;20049;-73
2022/10/15 03:42:55;;;;;;;63.72;37.08;;;12.80;99.90;;;;;;5027813;28;20052;-73
2022/10/15 03:45:22;;;;;;;54.47;34.45;;;12.70;99.90;;;;;;5027533;28;20049;-73
2022/10/15 03:47:47;;;;;;;56.05;36.60;;;12.80;99.90;;;;;;5026443;28;20071;-73
2022/10/15 03:50:14;;;;;;;50.53;32.08;;;12.70;99.90;;;;;;5043259;28;20482;-73
2022/10/15 03:52:40;;;;;;;57.92;36.45;;;12.80;99.90;;;;;;5064850;28;20059;-73
2022/10/15 03:55:06;;;;;;;50.15;35.92;;;12.70;99.90;;;;;;5065410;28;20615;-73
2022/10/15 03:57:32;;;;;;;50.13;34.08;;;12.70;99.90;;;;;;5065028;28;20051;-73
2022/10/15 03:59:57;;;;;;;63.20;37.20;;;12.70;99.90;;;;;;5047692;28;20045;-73
2022/10/15 04:02:24;;;;;;;58.58;35.25;;;12.70;99.90;;;;;;5046881;28;20060;-73
2022/10/15 04:04:53;;;;;;;55.95;35.22;;;12.80;99.90;;;;;;5064233;28;20085;-73
2022/10/15 04:07:20;;;;;;;62.47;36.85;;;12.70;99.90;;;;;;5047492;28;20052;-73
2022/10/15 04:09:46;;;;;;;56.63;34.15;;;12.70;99.90;;;;;;5064972;28;20045;-73
2022/10/15 04:12:11;;;;;;;64.47;35.75;;;12.70;99.90;;;;;;5064877;28;20089;-73
2022/10/15 04:14:38;;;;;;;68.03;38.20;;;12.70;99.90;;;;;;5064194;28;20522;-73
2022/10/15 04:17:03;;;;;;;55.90;35.17;;;12.80;99.90;;;;;;5064769;28;20556;-73
2022/10/15 04:19:29;;;;;;;53.00;35.45;;;12.80;99.90;;;;;;5064198;28;20094;-73
2022/10/15 04:21:55;;;;;;;58.80;37.05;;;12.70;99.90;;;;;;5064329;28;20067;-73
2022/10/15 04:24:21;;;;;;;56.67;35.22;;;12.70;99.90;;;;;;5063489;28;20040;-73
2022/10/15 04:26:46;;;;;;;58.42;36.88;;;12.70;99.90;;;;;;5044352;28;20479;-74
2022/10/15 04:29:12;;;;;;;60.22;34.08;;;12.70;99.90;;;;;;5044682;28;20084;-73
2022/10/15 04:31:37;;;;;;;58.33;37.08;;;12.70;99.90;;;;;;5026808;28;20040;-73
2022/10/15 04:34:04;;;;;;;68.78;35.20;;;12.70;99.90;;;;;;5043707;28;20033;-74
2022/10/15 04:36:29;;;;;;;66.03;38.78;;;12.70;99.90;;;;;;5049607;28;20851;-73
2022/10/15 04:38:55;;;;;;;58.97;35.83;;;12.70;99.90;;;;;;5064286;28;20131;-73
2022/10/15 04:41:20;;;;;;;64.22;37.88;;;12.70;99.90;;;;;;5046453;28;20052;-73
2022/10/15 04:43:46;;;;;;;59.75;36.90;;;12.70;99.90;;;;;;5046567;28;20040;-73
2022/10/15 04:46:12;;;;;;;61.33;35.85;;;12.70;99.90;;;;;;5064151;28;20075;-73
2022/10/15 04:48:38;;;;;;;63.33;37.95;;;12.70;99.90;;;;;;5064171;28;20047;-73
2022/10/15 04:51:07;;;;;;;61.63;37.83;;;12.70;99.90;;;;;;5045740;28;20697;-73
2022/10/15 04:53:33;;;;;;;58.60;35.58;;;12.70;99.90;;;;;;5063702;28;20037;-74
2022/10/15 04:56:06;;;;;;;65.97;38.55;;;12.70;99.90;;;;;;5064580;28;20066;-73
2022/10/15 04:58:32;;;;;;;67.68;39.17;;;12.70;99.90;;;;;;5046054;28;20080;-73
2022/10/15 05:01:04;;;;;;;71.45;38.42;;;12.70;99.90;;;;;;5064355;28;20037;-73
2022/10/15 05:03:30;;;;;;;71.53;41.63;;;12.70;99.90;;;;;;5063964;28;20041;-73
2022/10/15 05:06:11;;;;;;;63.42;39.53;;;12.70;99.90;;;;;;5045344;28;20052;-73
2022/10/15 05:08:40;;;;;;;71.40;40.35;;;12.70;99.90;;;;;;5063271;28;20041;-73
2022/10/15 05:11:08;;;;;;;70.80;44.03;;;12.70;99.90;;;;;;5063814;28;20072;-73
2022/10/15 05:13:34;;;;;;;64.90;40.05;;;12.70;99.90;;;;;;5063489;28;20024;-73
2022/10/15 05:16:13;;;;;;;66.68;43.15;;;12.70;99.90;;;;;;5025330;28;20550;-73
2022/10/15 05:18:39;;;;;;;69.03;40.13;;;12.70;99.90;;;;;;5023715;28;20041;-73
2022/10/15 05:21:06;;;;;;;76.30;42.25;;;12.70;99.90;;;;;;5023575;28;20053;-73
2022/10/15 05:23:32;;;;;;;65.22;41.88;;;12.70;99.90;;;;;;5019107;28;20487;-73
2022/10/15 05:26:02;;;;;;;78.28;42.50;;;12.70;99.90;;;;;;5018980;28;20045;-73
2022/10/15 05:28:29;;;;;;;77.43;44.17;;;12.70;99.90;;;;;;5023228;28;20057;-73
2022/10/15 05:30:54;;;;;;;81.00;42.75;;;12.80;99.90;;;;;;5023543;28;20381;-73
2022/10/15 05:33:20;;;;;;;68.50;40.58;;;12.70;99.90;;;;;;5023453;28;20100;-73
2022/10/15 05:35:46;;;;;;;80.07;42.53;;;12.70;99.90;;;;;;5022430;28;20050;-73
2022/10/15 05:38:11;;;;;;;76.75;42.58;;;12.70;99.90;;;;;;5023960;28;20280;-73
2022/10/15 05:40:37;;;;;;;76.53;41.78;;;12.70;99.90;;;;;;5006098;28;20136;-73
2022/10/15 05:43:03;;;;;;;70.80;42.40;;;12.70;99.90;;;;;;5023844;28;20045;-73
2022/10/15 05:45:28;;;;;;;70.70;42.95;;;12.70;99.90;;;;;;5022708;28;20091;-73
2022/10/15 05:47:54;;;;;;;68.97;40.97;;;12.70;99.90;;;;;;5018355;28;20045;-73
2022/10/15 05:50:21;;;;;;;64.95;41.42;;;12.70;99.90;;;;;;5022568;28;20120;-73
2022/10/15 05:52:47;;;;;;;75.90;43.53;;;12.60;99.90;;;;;;5023257;28;20041;-73
2022/10/15 05:55:12;;;;;;;71.00;39.78;;;12.60;99.90;;;;;;5023733;28;20107;-73
2022/10/15 05:57:38;;;;;;;70.30;41.35;;;12.70;99.90;;;;;;5023019;28;20041;-73
2022/10/15 06:00:05;;;;;;;75.88;43.40;;;12.60;99.90;;;;;;5023462;28;20045;-74
2022/10/15 06:02:30;;;;;;;65.20;40.17;;;12.60;99.90;;;;;;5022208;28;20491;-73
2022/10/15 06:04:56;;;;;;;77.97;40.88;;;12.60;99.90;;;;;;5006816;28;20076;-73
2022/10/15 06:07:22;;;;;;;67.70;39.00;;;12.60;99.90;;;;;;5003684;28;20691;-73
2022/10/15 06:09:47;;;;;;;74.90;41.33;;;12.60;99.90;;;;;;5001360;28;20042;-73
2022/10/15 06:12:13;;;;;;;67.85;39.72;;;12.60;99.90;;;;;;5003153;28;20408;-73
2022/10/15 06:14:38;;;;;;;79.15;41.95;;;12.60;99.90;;;;;;5019761;28;20045;-73
2022/10/15 06:17:04;;;;;;;68.63;40.22;;;12.60;99.90;;;;;;5061604;28;20052;-73
2022/10/15 06:19:30;;;;;;;75.03;43.15;;;12.60;99.90;;;;;;5050569;28;20064;-73
2022/10/15 06:21:56;;;;;;;60.72;39.67;;;12.60;99.90;;;;;;5042472;28;20123;-74
2022/10/15 06:24:21;;;;;;;71.18;40.97;;;12.60;99.90;;;;;;5042645;28;20053;-73
2022/10/15 06:26:47;;;;;;;79.50;42.30;;;12.70;99.90;;;;;;5025033;28;20048;-74
2022/10/15 06:29:13;;;;;;;67.60;42.35;;;12.60;99.90;;;;;;5048240;28;20032;-73
2022/10/15 06:31:38;;;;;;;65.75;42.25;;;12.60;99.90;;;;;;5055260;28;20044;-72
2022/10/15 06:34:04;;;;;;;68.63;42.95;;;12.70;99.90;;;;;;5041787;28;20037;-73
2022/10/15 06:36:29;;;;;;;76.15;44.22;;;12.60;99.90;;;;;;5042765;28;20053;-73
2022/10/15 06:38:55;;;;;;;73.35;41.53;;;12.70;99.90;;;;;;5024352;28;20124;-72
2022/10/15 06:41:20;;;;;;;58.72;39.00;;;12.70;99.90;;;;;;5012492;28;20053;-72
2022/10/15 06:43:49;;;;;;;64.18;41.92;;;12.70;99.90;;;;;;5062313;28;20066;-72
2022/10/15 06:46:15;;;;;;;68.13;42.75;;;12.60;99.90;;;;;;5062513;28;20040;-72
2022/10/15 06:48:40;;;;;;;69.43;40.22;;;12.60;99.90;;;;;;5043144;28;20048;-72
2022/10/15 06:51:06;;;;;;;63.47;39.17;;;12.60;99.90;;;;;;5027863;28;20053;-73
2022/10/15 06:53:32;;;;;;;63.75;38.25;;;12.60;99.90;;;;;;5039665;28;20442;-72
2022/10/15 06:55:59;;;;;;;71.88;40.05;;;12.60;99.90;;;;;;5052049;28;20120;-72
2022/10/15 06:58:25;;;;;;;58.35;38.22;;;12.60;99.90;;;;;;5033166;28;20048;-72
2022/10/15 07:00:51;;;;;;;67.15;39.03;;;12.60;99.90;;;;;;5043422;28;20049;-72
2022/10/15 07:03:16;;;;;;;61.72;38.85;;;12.60;99.90;;;;;;5043489;28;20041;-72
2022/10/15 07:05:42;;;;;;;65.97;38.72;;;12.60;99.90;;;;;;5043182;28;20124;-72
2022/10/15 07:08:08;;;;;;;55.63;38.72;;;12.60;99.90;;;;;;5061540;28;20067;-72
2022/10/15 07:10:33;;;;;;;61.70;39.00;;;12.60;99.90;;;;;;5061340;28;20037;-72
2022/10/15 07:13:00;;;;;;;74.72;40.30;;;12.60;99.90;;;;;;5029896;28;20399;-73
2022/10/15 07:15:26;;;;;;;73.15;43.05;;;12.60;99.90;;;;;;5045704;28;20045;-71
2022/10/15 07:18:00;;;;;;;68.95;42.83;;;12.60;99.90;;;;;;5048789;28;20071;-71
2022/10/15 07:20:30;;;;;;;71.63;44.00;;;12.70;99.90;;;;;;5059890;28;20044;-71
2022/10/15 07:23:00;;;;;;;74.20;44.53;;;12.70;99.90;;;;;;5057940;28;20037;-72
2022/10/15 07:25:26;;;;;;;84.13;47.58;;;12.70;99.90;;;;;;5037935;28;20040;-72
2022/10/15 07:27:54;;;;;;;79.03;46.78;;;12.80;99.90;;;;;;5060178;28;20076;-72
2022/10/15 07:30:20;;;;;;;85.38;49.50;;;12.80;99.90;;;;;;5045813;28;20055;-72
2022/10/15 07:32:45;;;;;;;88.20;49.58;;;12.80;99.90;;;;;;5050925;28;20059;-71
2022/10/15 07:35:11;;;;;;;90.57;48.63;;;12.80;99.90;;;;;;5034010;28;20354;-72
2022/10/15 07:37:37;;;;;;;85.55;49.15;;;12.90;99.90;;;;;;5038093;28;20041;-72
2022/10/15 07:40:03;;;;;;;77.88;46.72;;;12.90;99.90;;;;;;5045452;28;20044;-72
2022/10/15 07:42:29;;;;;;;83.60;49.20;;;12.90;99.90;;;;;;5061971;28;20086;-71
2022/10/15 07:44:54;;;;;;;84.97;47.70;;;12.90;99.90;;;;;;5050175;28;20444;-72
2022/10/15 07:47:20;;;;;;;79.05;47.20;;;12.90;99.90;;;;;;5055570;28;20115;-72
2022/10/15 07:49:45;;;;;;;78.75;45.50;;;12.90;99.90;;;;;;5055791;28;20037;-71
2022/10/15 07:52:11;;;;;;;88.88;47.83;;;12.90;99.90;;;;;;5040975;28;20491;-72
2022/10/15 07:54:37;;;;;;;78.07;45.83;;;12.90;99.90;;;;;;5051573;28;20045;-72
2022/10/15 07:57:02;;;;;;;92.03;45.30;;;12.90;99.90;;;;;;5051673;28;20044;-75
2022/10/15 07:59:28;;;;;;;77.63;41.78;;;12.90;99.90;;;;;;5030142;28;20123;-72
2022/10/15 08:01:54;;;;;;;69.80;36.17;;;13.00;99.90;;;;;;5046339;28;20106;-74
2022/10/15 08:04:19;;;;;;;72.05;38.33;;;12.90;99.90;;;;;;5059909;28;20785;-72
2022/10/15 08:06:45;;;;;;;62.80;33.17;;;13.00;99.90;;;;;;5053805;28;20032;-76
2022/10/15 08:09:11;;;;;;;67.38;35.53;;;12.90;99.90;;;;;;5057292;28;20063;-73
2022/10/15 08:11:37;;;;;;;69.35;32.47;;;12.90;99.90;;;;;;5054762;28;20632;-74
2022/10/15 08:14:02;;;;;;;60.90;35.42;;;13.00;99.90;;;;;;5040007;28;20045;-74
2022/10/15 08:16:28;;;;;;;61.28;33.33;;;12.90;99.90;;;;;;5056970;28;20045;-79
2022/10/15 08:18:54;;;;;;;76.97;36.63;;;13.00;99.90;;;;;;5049524;28;20483;-78
2022/10/15 08:21:20;;;;;;;54.03;33.33;;;13.00;99.90;;;;;;5051736;28;20131;-75
2022/10/15 08:23:46;;;;;;;58.20;32.40;;;13.00;99.90;;;;;;5032347;28;20044;-76
2022/10/15 08:26:12;;;;;;;62.10;33.55;;;13.00;99.90;;;;;;5055586;28;20051;-78
2022/10/15 08:28:37;;;;;;;59.60;34.05;;;13.00;99.90;;;;;;5039570;28;20119;-76
2022/10/15 08:31:03;;;;;;;74.28;38.17;;;13.10;99.90;;;;;;5031483;28;20033;-76
2022/10/15 08:33:29;;;;;;;70.68;37.78;;;13.10;99.90;;;;;;5034806;28;20088;-78
2022/10/15 08:35:55;;;;;;;77.88;39.17;;;13.10;99.90;;;;;;5046350;28;20498;-76
2022/10/15 08:38:21;;;;;;;78.10;41.47;;;13.10;99.90;;;;;;5042896;28;20048;-76
2022/10/15 08:40:48;;;;;;;64.13;40.47;;;13.10;99.90;;;;;;5051392;28;20040;-76
2022/10/15 08:43:27;;;;;;;84.68;40.97;;;13.10;99.90;;;;;;5056848;28;20044;-76
2022/10/15 08:45:57;;;;;;;63.58;38.85;;;13.10;99.90;;;;;;5054113;28;20502;-75
2022/10/15 08:48:56;;;;;;;52.42;33.35;;;13.10;99.90;;;;;;5031415;28;20048;-76
2022/10/15 08:51:25;;;;;;;57.58;35.30;;;13.20;99.90;;;;;;5055794;28;20392;-77
2022/10/15 08:53:58;;;;;;;54.13;35.55;;;13.20;99.90;;;;;;5032393;28;20051;-76
2022/10/15 08:56:38;;;;;;;53.53;31.92;;;13.20;99.90;;;;;;5026834;28;20044;-78
2022/10/15 08:59:25;;;;;;;57.67;32.30;;;13.20;99.90;;;;;;5019456;28;20037;-74
2022/10/15 09:01:59;;;;;;;55.80;32.40;;;13.20;99.90;;;;;;5053049;28;20045;-74
2022/10/15 09:04:30;;;;;;;61.08;32.42;;;13.20;99.90;;;;;;5063342;28;20054;-74
2022/10/15 09:07:23;;;;;;;52.60;29.85;;;13.20;99.90;;;;;;5028847;28;20049;-74
2022/10/15 09:10:15;;;;;;;56.10;32.30;;;13.30;99.90;;;;;;5021044;28;20087;-76
2022/10/15 09:12:47;;;;;;;51.25;32.30;;;13.20;99.90;;;;;;5040242;28;20092;-77
2022/10/15 09:15:16;;;;;;;47.90;31.98;;;13.30;99.90;;;;;;5060747;28;20044;-75
2022/10/15 09:17:45;;;;;;;52.35;30.30;;;13.30;99.90;;;;;;5061352;28;20067;-77
2022/10/15 09:20:20;;;;;;;51.40;33.00;;;13.40;99.90;;;;;;5043155;28;20804;-75
2022/10/15 09:22:50;;;;;;;57.63;33.33;;;13.40;99.90;;;;;;5030463;28;20076;-76
2022/10/15 09:25:21;;;;;;;47.42;32.70;;;13.40;99.90;;;;;;5052321;28;20133;-76
2022/10/15 09:27:48;;;;;;;55.27;33.07;;;13.40;99.90;;;;;;5049186;28;20087;-76
2022/10/15 09:30:22;;;;;;;48.53;31.73;;;13.40;99.90;;;;;;5061221;28;20071;-74
2022/10/15 09:33:16;;;;;;;56.42;33.22;;;13.40;99.90;;;;;;5033842;28;20036;-75
2022/10/15 09:35:44;;;;;;;56.55;31.85;;;13.40;99.90;;;;;;5033523;28;20036;-76
2022/10/15 09:38:45;;;;;;;52.05;32.88;;;13.50;99.90;;;;;;5056090;28;20376;-76
2022/10/15 09:41:15;;;;;;;52.00;34.13;;;13.50;99.90;;;;;;5033660;28;20407;-76
2022/10/15 09:43:43;;;;;;;51.08;32.65;;;13.50;99.90;;;;;;5055346;28;20045;-78
2022/10/15 09:46:10;;;;;;;55.88;33.00;;;13.50;99.90;;;;;;5039570;28;20485;-75
2022/10/15 09:49:02;;;;;;;48.58;29.60;;;13.50;99.90;;;;;;5029880;28;20110;-77
2022/10/15 09:51:37;;;;;;;46.78;27.02;;;13.50;99.90;;;;;;5051847;28;20451;-76
2022/10/15 09:54:35;;;;;;;45.47;26.35;;;13.50;99.90;;;;;;5037072;28;20052;-77
2022/10/15 09:57:01;;;;;;;40.05;27.50;;;13.40;99.90;;;;;;5040568;28;20037;-74
2022/10/15 09:59:26;;;;;;;31.77;23.63;;;13.40;99.90;;;;;;5033878;28;20044;-76
2022/10/15 10:02:25;;;;;;;46.65;25.00;;;13.40;99.90;;;;;;5025011;28;20550;-77
2022/10/15 10:04:52;;;;;;;39.67;23.35;;;13.40;99.90;;;;;;4973723;28;20084;-74
2022/10/15 10:07:37;;;;;;;35.92;22.25;;;13.40;99.90;;;;;;5062985;28;20487;-76
2022/10/15 10:10:38;;;;;;;42.03;23.50;;;13.50;99.90;;;;;;5044853;28;20650;-78
2022/10/15 10:13:17;;;;;;;42.42;23.58;;;13.50;99.90;;;;;;4976477;28;20567;-74
2022/10/15 10:15:42;;;;;;;29.85;18.67;;;13.50;99.90;;;;;;5037100;28;20071;-76
2022/10/15 10:18:19;;;;;;;44.60;22.40;;;13.50;99.90;;;;;;5039759;28;20037;-73
2022/10/15 10:20:57;;;;;;;36.35;21.90;;;13.50;99.90;;;;;;5027779;28;20067;-74
2022/10/15 10:23:28;;;;;;;40.47;22.63;;;13.60;99.90;;;;;;5030962;28;20065;-73
2022/10/15 10:25:58;;;;;;;39.58;23.08;;;13.60;99.90;;;;;;5031953;28;20040;-75
2022/10/15 10:28:34;;;;;;;37.72;22.33;;;13.60;99.90;;;;;;5033724;28;20069;-74
2022/10/15 10:31:04;;;;;;;30.52;21.30;;;13.60;99.90;;;;;;5016804;28;20041;-73
2022/10/15 10:33:34;;;;;;;34.58;21.08;;;13.60;99.90;;;;;;5053979;28;20049;-74
2022/10/15 10:36:00;;;;;;;35.22;22.80;;;13.60;99.90;;;;;;5025055;28;20037;-73
2022/10/15 10:38:28;;;;;;;37.83;22.88;;;13.60;99.90;;;;;;5048824;28;20063;-74
2022/10/15 10:41:04;;;;;;;35.60;19.23;;;13.70;99.90;;;;;;5029697;28;20056;-74
2022/10/15 10:43:30;;;;;;;33.17;20.17;;;13.70;99.90;;;;;;5041195;28;20135;-73
2022/10/15 10:45:59;;;;;;;36.78;20.23;;;13.70;99.90;;;;;;5050966;28;20075;-74
2022/10/15 10:48:31;;;;;;;37.90;20.67;;;13.70;99.90;;;;;;5051350;28;20455;-73
2022/10/15 10:51:06;;;;;;;33.53;19.73;;;13.70;99.90;;;;;;5037190;28;20084;-76
2022/10/15 10:53:37;;;;;;;33.00;19.13;;;13.70;99.90;;;;;;5058917;28;20043;-75
2022/10/15 10:56:05;;;;;;;31.42;18.15;;;13.70;99.90;;;;;;5035405;28;20518;-75
2022/10/15 10:58:33;;;;;;;33.88;18.38;;;13.70;99.90;;;;;;5048558;28;20041;-75
2022/10/15 11:00:59;;;;;;;30.10;17.75;;;13.80;99.90;;;;;;5052371;28;20094;-73
2022/10/15 11:03:42;;;;;;;24.25;16.95;;;13.80;99.90;;;;;;5052637;28;20483;-74
2022/10/15 11:06:11;;;;;;;28.40;17.38;;;13.90;99.90;;;;;;5056164;28;20116;-75
2022/10/15 11:09:09;;;;;;;26.83;17.80;;;13.90;99.90;;;;;;5044685;28;20075;-75
2022/10/15 11:11:47;;;;;;;24.17;16.45;;;14.00;99.90;;;;;;5052054;28;20074;-75
2022/10/15 11:14:22;;;;;;;22.90;15.95;;;14.10;99.90;;;;;;5047912;28;20045;-76
2022/10/15 11:17:00;;;;;;;25.00;15.07;;;14.20;99.90;;;;;;5056990;28;20072;-75
2022/10/15 11:19:25;;;;;;;28.35;15.70;;;14.20;99.90;;;;;;5046381;28;20071;-76
2022/10/15 11:22:06;;;;;;;28.10;16.90;;;14.30;99.90;;;;;;5053488;28;20266;-75
2022/10/15 11:24:50;;;;;;;22.88;15.75;;;14.40;99.90;;;;;;5036488;28;20559;-76
2022/10/15 11:27:36;;;;;;;24.05;15.68;;;14.40;99.90;;;;;;5045821;28;20499;-75
2022/10/15 11:30:29;;;;;;;23.55;14.82;;;14.50;99.90;;;;;;5049486;28;20120;-74
2022/10/15 11:33:19;;;;;;;27.13;14.90;;;14.50;99.90;;;;;;5052122;28;20399;-74
2022/10/15 11:35:50;;;;;;;16.15;12.55;;;14.40;99.90;;;;;;5054950;28;20047;-74
2022/10/15 11:38:58;;;;;;;26.80;15.05;;;14.50;99.90;;;;;;5055132;28;20044;-77
2022/10/15 11:41:40;;;;;;;16.83;12.07;;;14.60;99.90;;;;;;5015478;28;20597;-75
2022/10/15 11:44:21;;;;;;;17.92;13.23;;;14.60;99.90;;;;;;5039021;28;20109;-75
2022/10/15 11:47:15;;;;;;;20.45;12.30;;;14.60;99.90;;;;;;5048205;28;20076;-75
2022/10/15 11:49:44;;;;;;;15.85;11.88;;;14.70;99.90;;;;;;5047143;28;20076;-75
2022/10/15 11:52:26;;;;;;;19.40;13.15;;;14.60;99.90;;;;;;5049397;28;20123;-75
2022/10/15 11:55:10;;;;;;;19.30;13.18;;;14.60;99.90;;;;;;5059237;28;20087;-76
2022/10/15 11:57:39;;;;;;;19.65;13.45;;;14.60;99.90;;;;;;5064521;28;20054;-75
2022/10/15 12:00:28;;;;;;;19.80;12.60;;;14.70;99.90;;;;;;5065255;28;20051;-74
2022/10/15 12:02:56;;;;;;;17.30;10.77;;;14.70;99.90;;;;;;5049562;28;20056;-73
2022/10/15 12:05:33;;;;;;;22.45;12.02;;;14.70;99.90;;;;;;5045031;28;20049;-74
2022/10/15 12:08:00;;;;;;;15.20;10.02;;;14.80;99.90;;;;;;5039452;28;20040;-73
2022/10/15 12:11:02;;;;;;;13.45;11.00;;;14.80;99.90;;;;;;5064590;28;20040;-74
2022/10/15 12:13:39;;;;;;;16.33;11.70;;;14.90;99.90;;;;;;5047204;28;20117;-72
2022/10/15 12:16:23;;;;;;;19.13;11.68;;;14.90;99.90;;;;;;5043667;28;20291;-72
2022/10/15 12:18:59;;;;;;;13.07;11.00;;;14.90;99.90;;;;;;5044032;28;20071;-72
2022/10/15 12:21:42;;;;;;;14.10;11.43;;;14.90;99.90;;;;;;5034293;28;20044;-72
2022/10/15 12:24:38;;;;;;;17.60;11.32;;;15.00;99.90;;;;;;5032498;28;20052;-73
2022/10/15 12:27:18;;;;;;;19.20;12.13;;;15.00;99.90;;;;;;5055240;28;20080;-73
2022/10/15 12:29:45;;;;;;;17.00;11.52;;;15.00;99.90;;;;;;5044872;28;20481;-73
2022/10/15 12:32:26;;;;;;;17.58;12.38;;;15.00;99.90;;;;;;5058100;28;20048;-73
2022/10/15 12:34:58;;;;;;;15.13;9.95;;;15.00;99.90;;;;;;5063392;28;20125;-74
2022/10/15 12:37:27;;;;;;;16.15;11.07;;;15.00;99.90;;;;;;5058564;28;20047;-73
2022/10/15 12:40:06;;;;;;;17.17;11.73;;;15.00;99.90;;;;;;5026022;28;20041;-74
2022/10/15 12:42:38;;;;;;;12.00;9.48;;;15.00;99.90;;;;;;5044838;28;20045;-73
2022/10/15 12:45:30;;;;;;;16.20;11.40;;;15.00;99.90;;;;;;5049428;28;20102;-72